createdAt,value
2022-08-24T00:00:21.984Z,16.30
2022-08-24T00:02:50.357Z,16.30
2022-08-24T00:05:21.611Z,16.30
2022-08-24T00:07:50.587Z,16.30
2022-08-24T00:10:21.338Z,16.40
2022-08-24T00:12:50.228Z,16.40
2022-08-24T00:15:18.018Z,16.30
2022-08-24T00:17:45.712Z,16.30
2022-08-24T00:20:14.557Z,16.30
2022-08-24T00:22:42.837Z,16.30
2022-08-24T00:25:12.667Z,16.30
2022-08-24T00:27:42.255Z,16.20
2022-08-24T00:30:15.682Z,16.20
2022-08-24T00:32:45.442Z,16.20
2022-08-24T00:35:15.047Z,16.10
2022-08-24T00:37:42.414Z,16.10
2022-08-24T00:40:23.841Z,16.00
2022-08-24T00:42:52.356Z,16.00
2022-08-24T00:45:22.354Z,16.00
2022-08-24T00:48:04.280Z,15.90
2022-08-24T00:50:41.770Z,15.90
2022-08-24T00:53:21.084Z,15.90
2022-08-24T00:55:57.379Z,15.80
2022-08-24T00:58:52.810Z,15.80
2022-08-24T01:01:27.503Z,15.80
2022-08-24T01:03:57.368Z,15.70
2022-08-24T01:06:26.021Z,15.70
2022-08-24T01:08:56.439Z,15.60
2022-08-24T01:11:33.736Z,15.60
2022-08-24T01:14:04.185Z,15.60
2022-08-24T01:16:50.411Z,15.50
2022-08-24T01:22:13.576Z,15.50
2022-08-24T01:24:41.159Z,15.50
2022-08-24T01:27:12.546Z,15.50
2022-08-24T01:29:42.997Z,15.50
2022-08-24T01:32:12.130Z,15.40
2022-08-24T01:34:39.638Z,15.40
2022-08-24T01:37:11.072Z,15.50
2022-08-24T01:39:48.240Z,15.50
2022-08-24T01:42:16.558Z,15.50
2022-08-24T01:44:46.963Z,15.50
2022-08-24T01:47:17.054Z,15.40
2022-08-24T01:49:47.977Z,15.40
2022-08-24T01:52:22.317Z,15.30
2022-08-24T01:54:52.277Z,15.30
2022-08-24T01:57:20.650Z,15.20
2022-08-24T01:59:51.967Z,15.20
2022-08-24T02:02:30.402Z,15.10
2022-08-24T02:05:00.615Z,15.10
2022-08-24T02:07:30.048Z,15.00
2022-08-24T02:09:57.792Z,15.00
2022-08-24T02:12:25.673Z,15.00
2022-08-24T02:14:53.545Z,14.90
2022-08-24T02:17:22.340Z,14.90
2022-08-24T02:19:55.407Z,14.90
2022-08-24T02:22:22.829Z,14.80
2022-08-24T02:24:50.230Z,14.70
2022-08-24T02:27:18.556Z,14.70
2022-08-24T02:29:47.153Z,14.70
2022-08-24T02:32:18.015Z,14.70
2022-08-24T02:34:46.083Z,14.80
2022-08-24T02:37:13.540Z,14.80
2022-08-24T02:39:41.258Z,14.80
2022-08-24T02:42:15.250Z,14.80
2022-08-24T02:44:42.787Z,14.70
2022-08-24T02:47:10.678Z,14.60
2022-08-24T02:49:38.577Z,14.60
2022-08-24T02:52:06.782Z,14.60
2022-08-24T02:54:37.096Z,14.50
2022-08-24T02:57:05.525Z,14.40
2022-08-24T02:59:32.892Z,14.40
2022-08-24T03:02:00.633Z,14.40
2022-08-24T03:04:28.451Z,14.40
2022-08-24T03:06:56.017Z,14.40
2022-08-24T03:09:23.876Z,14.50
2022-08-24T03:11:58.194Z,14.50
2022-08-24T03:14:25.776Z,14.60
2022-08-24T03:16:54.233Z,14.50
2022-08-24T03:19:22.441Z,14.60
2022-08-24T03:21:50.288Z,14.60
2022-08-24T03:24:17.980Z,14.60
2022-08-24T03:26:45.924Z,14.70
2022-08-24T03:29:15.920Z,14.70
2022-08-24T03:31:44.696Z,14.70
2022-08-24T03:34:13.813Z,14.70
2022-08-24T03:36:46.777Z,14.70
2022-08-24T03:39:16.967Z,14.70
2022-08-24T03:41:45.075Z,14.70
2022-08-24T03:44:13.394Z,14.70
2022-08-24T03:46:41.821Z,14.70
2022-08-24T03:49:10.627Z,14.70
2022-08-24T03:51:39.319Z,14.70
2022-08-24T03:54:59.495Z,14.60
2022-08-24T03:57:27.237Z,14.60
2022-08-24T03:59:55.805Z,14.60
2022-08-24T04:02:23.665Z,14.50
2022-08-24T04:04:51.654Z,14.40
2022-08-24T04:07:20.209Z,14.40
2022-08-24T04:09:47.840Z,14.40
2022-08-24T04:12:16.906Z,14.40
2022-08-24T04:14:45.035Z,14.40
2022-08-24T04:17:16.688Z,14.40
2022-08-24T04:19:58.065Z,14.40
2022-08-24T04:22:35.514Z,14.50
2022-08-24T04:25:09.207Z,14.50
2022-08-24T04:27:41.372Z,14.50
2022-08-24T04:30:12.399Z,14.50
2022-08-24T04:32:59.505Z,14.40
2022-08-24T04:35:26.934Z,14.40
2022-08-24T04:37:54.683Z,14.50
2022-08-24T04:40:22.463Z,14.50
2022-08-24T04:42:52.531Z,14.60
2022-08-24T04:45:20.799Z,14.60
2022-08-24T04:47:48.404Z,14.60
2022-08-24T04:50:16.119Z,14.70
2022-08-24T04:52:52.404Z,14.70
2022-08-24T04:55:20.525Z,14.80
2022-08-24T04:57:50.963Z,14.80
2022-08-24T05:00:18.700Z,14.80
2022-08-24T05:02:46.065Z,14.90
2022-08-24T05:05:17.692Z,15.00
2022-08-24T05:07:45.319Z,15.00
2022-08-24T05:10:15.663Z,15.10
2022-08-24T05:12:45.298Z,15.20
2022-08-24T05:15:13.677Z,15.30
2022-08-24T05:17:51.002Z,15.30
2022-08-24T05:20:20.727Z,15.40
2022-08-24T05:22:50.105Z,15.50
2022-08-24T05:25:19.954Z,15.70
2022-08-24T05:27:48.278Z,15.80
2022-08-24T05:30:16.402Z,15.90
2022-08-24T05:32:44.507Z,16.00
2022-08-24T05:35:13.306Z,16.10
2022-08-24T05:37:43.325Z,16.30
2022-08-24T05:40:19.221Z,16.40
2022-08-24T05:42:56.801Z,16.50
2022-08-24T05:45:24.564Z,16.60
2022-08-24T05:47:52.901Z,16.80
2022-08-24T05:50:55.425Z,16.90
2022-08-24T05:53:25.063Z,17.00
2022-08-24T05:55:52.797Z,17.10
2022-08-24T05:58:30.883Z,17.20
2022-08-24T06:01:15.806Z,17.30
2022-08-24T06:03:43.442Z,17.50
2022-08-24T06:06:14.823Z,17.50
2022-08-24T06:08:47.060Z,17.60
2022-08-24T06:11:30.642Z,17.80
2022-08-24T06:14:12.021Z,17.90
2022-08-24T06:16:50.299Z,18.10
2022-08-24T06:19:19.753Z,18.20
2022-08-24T06:21:50.477Z,18.40
2022-08-24T06:24:40.570Z,18.50
2022-08-24T06:27:23.644Z,18.70
2022-08-24T06:30:06.283Z,18.90
2022-08-24T06:32:53.987Z,19.20
2022-08-24T06:35:33.929Z,19.40
2022-08-24T06:38:02.234Z,19.60
2022-08-24T06:40:30.517Z,19.80
2022-08-24T06:43:04.542Z,20.00
2022-08-24T06:45:58.699Z,20.30
2022-08-24T06:48:33.916Z,20.60
2022-08-24T06:51:01.818Z,20.80
2022-08-24T06:53:30.350Z,21.20
2022-08-24T06:56:00.110Z,21.50
2022-08-24T06:58:30.307Z,21.80
2022-08-24T07:01:14.543Z,22.00
2022-08-24T07:03:44.410Z,22.20
2022-08-24T07:06:40.712Z,22.50
2022-08-24T07:09:09.674Z,22.70
2022-08-24T07:11:37.363Z,22.90
2022-08-24T07:14:07.164Z,23.10
2022-08-24T07:16:35.786Z,23.40
2022-08-24T07:19:08.233Z,23.50
2022-08-24T07:21:36.224Z,23.80
2022-08-24T07:24:07.417Z,24.00
2022-08-24T07:26:40.269Z,24.10
2022-08-24T07:29:36.817Z,24.40
2022-08-24T07:32:05.868Z,24.50
2022-08-24T07:34:37.743Z,24.80
2022-08-24T07:37:08.050Z,24.90
2022-08-24T07:39:38.857Z,25.10
2022-08-24T07:42:19.633Z,25.20
2022-08-24T07:44:52.143Z,25.40
2022-08-24T07:47:37.406Z,25.60
2022-08-24T07:50:16.403Z,25.70
2022-08-24T07:52:45.001Z,25.70
2022-08-24T07:55:14.172Z,25.90
2022-08-24T07:57:45.295Z,26.00
2022-08-24T08:00:17.499Z,26.20
2022-08-24T08:02:50.571Z,26.30
2022-08-24T08:05:23.066Z,26.50
2022-08-24T08:07:53.391Z,26.80
2022-08-24T08:10:23.581Z,26.90
2022-08-24T08:12:53.276Z,27.00
2022-08-24T08:15:21.197Z,27.20
2022-08-24T08:18:10.621Z,27.30
2022-08-24T08:20:42.548Z,27.50
2022-08-24T08:23:29.756Z,27.50
2022-08-24T08:26:21.388Z,27.80
2022-08-24T08:29:08.530Z,28.00
2022-08-24T08:31:40.071Z,28.30
2022-08-24T08:34:09.942Z,28.60
2022-08-24T08:36:40.805Z,28.80
2022-08-24T08:42:15.717Z,29.20
2022-08-24T08:45:14.539Z,29.50
2022-08-24T08:48:26.702Z,29.80
2022-08-24T08:51:56.782Z,29.80
2022-08-24T08:54:46.138Z,30.10
2022-08-24T08:58:07.574Z,30.30
2022-08-24T09:01:07.946Z,30.50
2022-08-24T09:04:14.648Z,30.70
2022-08-24T09:07:21.959Z,30.70
2022-08-24T09:10:27.987Z,31.00
2022-08-24T09:13:29.774Z,31.00
2022-08-24T09:16:22.435Z,31.20
2022-08-24T09:19:31.756Z,31.50
2022-08-24T09:22:20.378Z,31.80
2022-08-24T09:24:54.132Z,32.20
2022-08-24T09:28:29.778Z,32.20
2022-08-24T09:31:15.881Z,32.50
2022-08-24T09:34:26.732Z,32.90
2022-08-24T09:37:04.273Z,33.20
2022-08-24T09:39:37.644Z,33.60
2022-08-24T09:42:58.143Z,33.70
2022-08-24T09:46:06.194Z,33.80
2022-08-24T09:49:14.443Z,33.90
2022-08-24T10:03:03.777Z,35.50
2022-08-24T10:05:58.985Z,35.50
2022-08-24T10:08:47.357Z,35.30
2022-08-24T10:11:37.044Z,34.90
2022-08-24T10:14:36.722Z,34.60
2022-08-24T10:17:37.284Z,34.70
2022-08-24T10:21:00.422Z,35.00
2022-08-24T10:24:01.320Z,34.90
2022-08-24T10:26:48.300Z,34.90
2022-08-24T10:30:02.452Z,35.00
2022-08-24T10:33:04.864Z,35.20
2022-08-24T10:36:06.708Z,35.40
2022-08-24T10:39:37.956Z,35.30
2022-08-24T10:42:44.200Z,35.60
2022-08-24T10:45:36.298Z,36.10
2022-08-24T10:48:21.856Z,36.70
2022-08-24T10:51:29.057Z,36.50
2022-08-24T10:53:57.590Z,36.60
2022-08-24T10:59:28.548Z,37.60
2022-08-24T11:02:26.731Z,37.70
2022-08-24T11:05:06.005Z,38.10
2022-08-24T11:07:34.271Z,38.40
2022-08-24T11:10:08.250Z,38.40
2022-08-24T11:12:43.243Z,38.60
2022-08-24T11:15:28.463Z,38.90
2022-08-24T11:18:04.862Z,38.90
2022-08-24T11:20:49.286Z,38.60
2022-08-24T11:23:22.707Z,38.60
2022-08-24T11:26:00.133Z,38.80
2022-08-24T11:28:48.119Z,38.70
2022-08-24T11:31:40.464Z,39.00
2022-08-24T11:34:38.014Z,39.30
2022-08-24T11:37:11.428Z,39.20
2022-08-24T11:39:39.653Z,39.50
2022-08-24T11:43:06.909Z,39.30
2022-08-24T11:45:57.523Z,39.00
2022-08-24T11:48:49.282Z,38.90
2022-08-24T11:51:44.001Z,38.80
2022-08-24T11:54:34.583Z,38.70
2022-08-24T11:57:30.787Z,39.00
2022-08-24T12:00:15.435Z,39.10
2022-08-24T12:03:30.205Z,39.60
2022-08-24T12:06:32.342Z,40.40
2022-08-24T12:09:19.728Z,40.40
2022-08-24T12:12:15.113Z,40.30
2022-08-24T12:15:02.288Z,40.70
2022-08-24T12:18:05.730Z,40.50
2022-08-24T12:20:37.561Z,40.10
2022-08-24T12:23:15.071Z,39.80
2022-08-24T12:26:04.126Z,40.00
2022-08-24T12:28:46.404Z,40.00
2022-08-24T12:31:23.119Z,40.30
2022-08-24T12:33:58.589Z,40.70
2022-08-24T12:36:40.071Z,41.20
2022-08-24T12:39:21.400Z,41.40
2022-08-24T12:42:22.899Z,41.60
2022-08-24T12:45:00.357Z,41.90
2022-08-24T12:47:45.731Z,42.10
2022-08-24T12:50:15.867Z,42.30
2022-08-24T12:53:12.203Z,42.10
2022-08-24T12:56:22.015Z,41.80
2022-08-24T12:59:33.099Z,41.80
2022-08-24T13:02:20.559Z,41.40
2022-08-24T13:04:54.152Z,41.30
2022-08-24T13:07:24.658Z,41.00
2022-08-24T13:10:00.994Z,40.80
2022-08-24T13:12:31.501Z,40.50
2022-08-24T13:15:26.184Z,40.60
2022-08-24T13:18:07.591Z,41.20
2022-08-24T13:20:35.190Z,41.40
2022-08-24T13:23:24.507Z,41.30
2022-08-24T13:25:54.232Z,41.10
2022-08-24T13:28:21.810Z,41.20
2022-08-24T13:31:31.761Z,41.40
2022-08-24T13:34:06.813Z,41.70
2022-08-24T13:37:10.680Z,41.70
2022-08-24T13:40:06.516Z,41.40
2022-08-24T13:42:44.628Z,40.70
2022-08-24T13:45:40.111Z,40.80
2022-08-24T13:54:09.972Z,41.90
2022-08-24T13:57:37.482Z,42.00
2022-08-24T14:00:46.322Z,42.30
2022-08-24T14:03:22.381Z,42.30
2022-08-24T14:06:11.547Z,42.40
2022-08-24T14:09:17.409Z,42.60
2022-08-24T14:14:51.499Z,42.50
2022-08-24T14:17:54.060Z,42.30
2022-08-24T14:21:09.307Z,41.70
2022-08-24T14:24:02.579Z,41.00
2022-08-24T14:26:40.346Z,40.50
2022-08-24T14:29:20.217Z,40.10
2022-08-24T14:32:00.225Z,39.90
2022-08-24T14:34:42.085Z,39.80
2022-08-24T14:37:16.693Z,39.90
2022-08-24T14:39:59.296Z,39.70
2022-08-24T14:43:00.752Z,39.90
2022-08-24T14:46:17.739Z,40.10
2022-08-24T14:49:19.085Z,40.30
2022-08-24T14:52:22.202Z,40.30
2022-08-24T14:55:03.263Z,40.30
2022-08-24T14:58:00.462Z,40.20
2022-08-24T15:01:14.779Z,40.10
2022-08-24T15:04:06.269Z,40.10
2022-08-24T15:06:39.481Z,39.90
2022-08-24T15:09:37.292Z,39.60
2022-08-24T15:12:42.763Z,39.40
2022-08-24T15:15:36.573Z,39.20
2022-08-24T15:18:13.729Z,38.90
2022-08-24T15:21:21.173Z,38.70
2022-08-24T15:24:52.804Z,38.60
2022-08-24T15:27:40.825Z,38.40
2022-08-24T15:30:24.261Z,38.20
2022-08-24T15:33:20.061Z,38.00
2022-08-24T15:35:52.172Z,37.70
2022-08-24T15:38:35.098Z,37.30
2022-08-24T15:41:24.776Z,36.70
2022-08-24T15:44:29.108Z,36.20
2022-08-24T15:47:02.048Z,35.60
2022-08-24T15:49:39.877Z,35.20
2022-08-24T15:52:58.712Z,34.80
2022-08-24T15:55:40.162Z,34.50
2022-08-24T15:58:43.151Z,34.10
2022-08-24T16:01:29.027Z,33.70
2022-08-24T16:03:59.546Z,33.50
2022-08-24T16:06:37.452Z,33.30
2022-08-24T16:09:23.357Z,33.10
2022-08-24T16:12:10.672Z,33.00
2022-08-24T16:17:55.688Z,32.60
2022-08-24T16:20:26.536Z,32.30
2022-08-24T16:23:09.258Z,32.10
2022-08-24T16:25:50.537Z,31.90
2022-08-24T16:28:21.730Z,31.80
2022-08-24T16:31:00.971Z,31.70
2022-08-24T16:33:30.600Z,31.60
2022-08-24T16:35:59.444Z,31.50
2022-08-24T16:38:31.781Z,31.30
2022-08-24T16:41:04.694Z,31.20
2022-08-24T16:43:32.307Z,31.10
2022-08-24T16:46:01.861Z,30.90
2022-08-24T16:48:29.404Z,30.90
2022-08-24T16:50:57.120Z,30.80
2022-08-24T16:53:24.884Z,30.80
2022-08-24T16:55:53.659Z,30.60
2022-08-24T16:58:24.407Z,30.60
2022-08-24T17:00:53.368Z,30.40
2022-08-24T17:03:21.914Z,30.30
2022-08-24T17:05:49.296Z,30.30
2022-08-24T17:08:16.876Z,30.20
2022-08-24T17:10:44.476Z,30.10
2022-08-24T17:13:16.609Z,30.00
2022-08-24T17:15:55.595Z,29.90
2022-08-24T17:18:24.600Z,29.70
2022-08-24T17:20:52.124Z,29.60
2022-08-24T17:23:20.634Z,29.50
2022-08-24T17:25:48.279Z,29.30
2022-08-24T17:28:19.186Z,29.20
2022-08-24T17:30:51.267Z,29.00
2022-08-24T17:33:18.998Z,28.90
2022-08-24T17:35:46.557Z,28.70
2022-08-24T18:25:48.053Z,25.50
2022-08-24T18:28:17.725Z,25.30
2022-08-24T18:30:45.964Z,25.10
2022-08-24T18:33:14.102Z,24.90
2022-08-24T18:35:41.853Z,24.80
2022-08-24T18:38:09.311Z,24.70
2022-08-24T18:40:36.926Z,24.40
2022-08-24T18:43:04.977Z,24.20
2022-08-24T18:45:34.828Z,24.00
2022-08-24T18:48:02.815Z,23.90
2022-08-24T18:50:30.871Z,23.70
2022-08-24T18:52:59.423Z,23.60
2022-08-24T18:55:27.683Z,23.40
2022-08-24T18:57:55.652Z,23.10
2022-08-24T19:00:23.440Z,23.00
2022-08-24T19:02:51.303Z,22.90
2022-08-24T19:05:24.921Z,22.80
2022-08-24T19:07:54.662Z,22.80
2022-08-24T19:10:29.393Z,22.80
2022-08-24T19:13:02.347Z,22.70
2022-08-24T19:15:39.463Z,22.70
2022-08-24T19:18:11.868Z,22.60
2022-08-24T19:20:48.603Z,22.50
2022-08-24T19:23:26.544Z,22.50
2022-08-24T19:25:54.840Z,22.40
2022-08-24T19:28:24.876Z,22.30
2022-08-24T19:30:57.328Z,22.30
2022-08-24T19:33:29.608Z,22.20
2022-08-24T19:35:58.781Z,22.10
